createdAt,value
2019-02-23T00:00:02.829Z,97.92
2019-02-23T00:02:59.290Z,98.50
2019-02-23T00:05:54.820Z,98.58
2019-02-23T00:08:51.523Z,98.61
2019-02-23T00:11:50.085Z,98.94
2019-02-23T00:14:46.269Z,99.69
2019-02-23T00:17:42.529Z,100.00
2019-02-23T00:20:37.620Z,100.00
2019-02-23T00:23:34.385Z,99.55
2019-02-23T00:26:30.124Z,99.86
2019-02-23T00:29:27.646Z,99.58
2019-02-23T00:32:23.110Z,99.82
2019-02-23T00:35:19.701Z,100.00
2019-02-23T00:38:14.315Z,100.00
2019-02-23T00:41:11.851Z,100.00
2019-02-23T00:44:07.589Z,99.64
2019-02-23T00:47:08.985Z,99.84
2019-02-23T00:50:10.490Z,99.69
2019-02-23T00:53:06.884Z,99.62
2019-02-23T00:56:02.163Z,100.00
2019-02-23T00:58:59.718Z,100.00
2019-02-23T01:01:54.464Z,99.88
2019-02-23T01:04:50.941Z,99.43
2019-02-23T01:07:46.749Z,99.81
2019-02-23T01:10:58.397Z,98.92
2019-02-23T01:13:51.817Z,99.05
2019-02-23T01:16:47.722Z,99.53
2019-02-23T01:19:47.691Z,99.69
2019-02-23T01:22:39.686Z,99.51
2019-02-23T01:25:35.423Z,99.10
2019-02-23T01:28:32.059Z,98.64
2019-02-23T01:31:27.469Z,98.93
2019-02-23T01:34:23.911Z,98.81
2019-02-23T01:37:19.651Z,98.74
2019-02-23T01:40:16.943Z,98.02
2019-02-23T01:43:12.916Z,98.63
2019-02-23T01:46:09.385Z,98.32
2019-02-23T01:49:04.873Z,97.85
2019-02-23T01:52:00.905Z,98.18
2019-02-23T01:54:56.214Z,97.70
2019-02-23T01:57:53.052Z,97.13
2019-02-23T02:00:49.773Z,98.31
2019-02-23T02:03:45.051Z,97.60
2019-02-23T02:06:41.633Z,97.58
2019-02-23T02:09:38.141Z,97.57
2019-02-23T02:12:34.666Z,97.84
2019-02-23T02:15:31.247Z,97.63
2019-02-23T02:18:27.964Z,97.27
2019-02-23T02:21:24.109Z,96.98
2019-02-23T02:24:20.492Z,97.42
2019-02-23T02:27:15.306Z,97.07
2019-02-23T02:30:13.022Z,96.33
2019-02-23T02:33:09.633Z,96.66
2019-02-23T02:36:06.119Z,96.46
2019-02-23T02:39:01.678Z,96.81
2019-02-23T02:41:59.953Z,97.02
2019-02-23T02:44:57.537Z,97.14
2019-02-23T02:47:53.956Z,96.62
2019-02-23T02:50:51.543Z,96.73
2019-02-23T02:53:47.525Z,97.04
2019-02-23T02:56:50.340Z,97.03
2019-02-23T02:59:51.586Z,97.14
2019-02-23T03:02:48.740Z,97.25
2019-02-23T03:05:44.196Z,97.12
2019-02-23T03:08:40.725Z,96.92
2019-02-23T03:11:38.416Z,96.92
2019-02-23T03:14:36.097Z,96.85
2019-02-23T03:17:31.800Z,97.20
2019-02-23T03:20:36.180Z,97.00
2019-02-23T03:23:28.730Z,97.20
2019-02-23T03:26:25.229Z,97.60
2019-02-23T03:29:19.838Z,97.67
2019-02-23T03:32:16.825Z,96.97
2019-02-23T03:35:12.242Z,96.97
2019-02-23T03:38:08.958Z,97.00
2019-02-23T03:41:05.698Z,97.44
2019-02-23T03:44:02.335Z,97.08
2019-02-23T03:46:59.012Z,97.03
2019-02-23T03:49:55.489Z,96.64
2019-02-23T03:52:51.126Z,96.30
2019-02-23T03:55:48.354Z,95.83
2019-02-23T03:58:43.819Z,95.87
2019-02-23T04:01:41.112Z,95.83
2019-02-23T04:04:37.120Z,95.80
2019-02-23T04:07:32.625Z,95.88
2019-02-23T04:10:29.052Z,95.61
2019-02-23T04:13:25.189Z,95.88
2019-02-23T04:16:21.312Z,96.00
2019-02-23T04:19:16.412Z,95.27
2019-02-23T04:22:13.670Z,95.19
2019-02-23T04:25:09.403Z,95.37
2019-02-23T04:28:05.870Z,94.66
2019-02-23T04:31:01.304Z,94.54
2019-02-23T04:33:57.748Z,94.08
2019-02-23T04:36:55.556Z,93.83
2019-02-23T04:39:51.043Z,94.19
2019-02-23T04:42:47.651Z,94.13
2019-02-23T04:45:43.032Z,93.95
2019-02-23T04:48:40.812Z,94.44
2019-02-23T04:51:36.328Z,94.05
2019-02-23T04:54:33.051Z,93.48
2019-02-23T04:57:28.534Z,93.57
2019-02-23T05:00:24.989Z,94.01
2019-02-23T05:03:20.809Z,94.18
2019-02-23T05:06:16.819Z,94.64
2019-02-23T05:09:19.560Z,93.29
2019-02-23T05:12:18.909Z,93.05
2019-02-23T05:15:14.439Z,93.64
2019-02-23T05:18:10.975Z,94.14
2019-02-23T05:21:06.521Z,94.30
2019-02-23T05:24:04.036Z,94.47
2019-02-23T05:26:59.610Z,94.20
2019-02-23T05:29:56.402Z,94.41
2019-02-23T05:32:59.303Z,95.59
2019-02-23T05:35:56.062Z,95.42
2019-02-23T05:38:51.303Z,95.09
2019-02-23T05:41:47.055Z,95.94
2019-02-23T05:44:42.815Z,96.18
2019-02-23T05:47:39.543Z,96.23
2019-02-23T05:50:37.493Z,95.88
2019-02-23T05:53:34.044Z,95.65
2019-02-23T05:56:30.548Z,94.34
2019-02-23T05:59:26.941Z,94.49
2019-02-23T06:02:22.598Z,94.99
2019-02-23T06:05:18.445Z,94.63
2019-02-23T06:08:14.137Z,94.72
2019-02-23T06:11:10.794Z,94.70
2019-02-23T06:14:08.384Z,94.78
2019-02-23T06:17:04.802Z,94.67
2019-02-23T06:20:00.319Z,93.51
2019-02-23T06:22:56.606Z,94.02
2019-02-23T06:25:51.432Z,93.84
2019-02-23T06:28:47.456Z,93.05
2019-02-23T06:31:43.038Z,93.13
2019-02-23T06:34:40.780Z,92.03
2019-02-23T06:37:36.314Z,91.91
2019-02-23T06:40:33.018Z,91.25
2019-02-23T06:43:29.532Z,90.53
2019-02-23T06:46:26.082Z,91.00
2019-02-23T06:49:21.579Z,91.52
2019-02-23T06:52:18.744Z,90.20
2019-02-23T06:55:15.437Z,89.44
2019-02-23T06:58:13.136Z,89.31
2019-02-23T07:01:08.887Z,87.85
2019-02-23T07:04:06.375Z,86.14
2019-02-23T07:07:01.859Z,86.09
2019-02-23T07:09:58.428Z,84.17
2019-02-23T07:12:54.978Z,82.55
2019-02-23T07:15:50.752Z,83.12
2019-02-23T07:18:46.268Z,81.52
2019-02-23T07:21:42.762Z,81.33
2019-02-23T07:24:44.138Z,78.98
2019-02-23T07:27:44.292Z,78.68
2019-02-23T07:30:40.069Z,77.33
2019-02-23T07:33:36.755Z,78.13
2019-02-23T07:36:32.959Z,76.92
2019-02-23T07:39:28.015Z,76.52
2019-02-23T07:45:15.238Z,76.24
2019-02-23T07:48:11.886Z,76.63
2019-02-23T07:51:07.461Z,74.17
2019-02-23T07:54:04.961Z,75.26
2019-02-23T07:57:00.761Z,74.59
2019-02-23T07:59:57.290Z,75.33
2019-02-23T08:02:52.736Z,73.46
2019-02-23T08:05:49.329Z,73.10
2019-02-23T08:08:45.091Z,70.11
2019-02-23T08:11:41.563Z,69.10
2019-02-23T08:14:39.038Z,69.25
2019-02-23T08:17:35.701Z,68.25
2019-02-23T08:20:31.977Z,66.90
2019-02-23T08:23:27.691Z,65.98
2019-02-23T08:26:25.602Z,64.28
2019-02-23T08:29:20.460Z,63.23
2019-02-23T08:32:17.203Z,62.30
2019-02-23T08:35:13.716Z,63.58
2019-02-23T08:38:10.466Z,64.40
2019-02-23T08:41:06.116Z,63.33
2019-02-23T08:44:02.933Z,62.27
2019-02-23T08:46:59.514Z,61.51
2019-02-23T08:49:56.913Z,60.43
2019-02-23T08:52:53.924Z,58.30
2019-02-23T08:55:58.196Z,58.67
2019-02-23T08:58:59.191Z,57.76
2019-02-23T09:01:54.922Z,58.20
2019-02-23T09:04:51.815Z,56.86
2019-02-23T09:07:47.376Z,58.83
2019-02-23T09:10:44.100Z,60.45
2019-02-23T09:13:40.882Z,58.24
2019-02-23T09:16:37.258Z,60.17
2019-02-23T09:19:32.583Z,60.85
2019-02-23T09:22:29.461Z,60.70
2019-02-23T09:25:25.324Z,60.12
2019-02-23T09:28:21.896Z,59.34
2019-02-23T09:31:17.417Z,58.86
2019-02-23T09:34:15.070Z,57.62
2019-02-23T09:37:17.864Z,58.17
2019-02-23T09:40:14.519Z,56.17
2019-02-23T09:43:10.009Z,54.64
2019-02-23T09:46:07.730Z,55.85
2019-02-23T09:49:04.225Z,55.88
2019-02-23T09:52:01.047Z,53.69
2019-02-23T09:54:56.617Z,54.83
2019-02-23T09:57:53.255Z,56.25
2019-02-23T10:00:48.287Z,55.61
2019-02-23T10:03:46.337Z,53.30
2019-02-23T10:06:43.071Z,53.71
2019-02-23T10:09:39.900Z,54.87
2019-02-23T10:12:37.332Z,53.69
2019-02-23T10:15:34.166Z,52.26
2019-02-23T10:18:29.301Z,53.98
2019-02-23T10:21:25.831Z,53.07
2019-02-23T10:24:21.230Z,50.08
2019-02-23T10:27:18.825Z,52.57
2019-02-23T10:30:14.663Z,50.87
2019-02-23T10:33:11.224Z,51.34
2019-02-23T10:36:06.920Z,50.24
2019-02-23T10:39:03.315Z,50.75
2019-02-23T10:41:59.020Z,49.96
2019-02-23T10:44:55.263Z,51.17
2019-02-23T10:47:50.657Z,50.91
2019-02-23T10:50:47.177Z,53.41
2019-02-23T10:53:42.990Z,52.13
2019-02-23T10:56:39.537Z,50.83
2019-02-23T10:59:37.307Z,50.29
2019-02-23T11:02:34.890Z,48.96
2019-02-23T11:05:30.437Z,47.17
2019-02-23T11:08:28.951Z,49.71
2019-02-23T11:11:25.268Z,47.09
2019-02-23T11:14:20.687Z,47.95
2019-02-23T11:17:16.155Z,47.11
2019-02-23T11:20:15.461Z,47.24
2019-02-23T11:23:11.370Z,47.01
2019-02-23T11:26:08.177Z,46.98
2019-02-23T11:29:04.519Z,48.18
2019-02-23T11:32:00.451Z,47.77
2019-02-23T11:34:56.198Z,48.17
2019-02-23T11:37:53.991Z,49.45
2019-02-23T11:40:49.527Z,48.51
2019-02-23T11:43:46.273Z,45.60
2019-02-23T11:46:59.211Z,44.14
2019-02-23T11:49:38.665Z,43.53
2019-02-23T11:52:34.179Z,41.22
2019-02-23T11:55:30.719Z,41.24
2019-02-23T11:58:26.346Z,41.64
2019-02-23T12:01:24.741Z,41.26
2019-02-23T12:04:20.138Z,40.99
2019-02-23T12:07:18.179Z,40.79
2019-02-23T12:10:14.097Z,39.53
2019-02-23T12:13:11.783Z,40.81
2019-02-23T12:16:07.221Z,42.33
2019-02-23T12:19:03.567Z,41.89
2019-02-23T12:21:59.128Z,39.89
2019-02-23T12:24:55.694Z,39.11
2019-02-23T12:27:50.311Z,39.67
2019-02-23T12:30:46.798Z,38.08
2019-02-23T12:33:42.265Z,38.34
2019-02-23T12:36:38.684Z,38.01
2019-02-23T12:39:36.503Z,37.68
2019-02-23T12:42:32.717Z,37.56
2019-02-23T12:45:29.128Z,39.18
2019-02-23T12:48:26.008Z,37.61
2019-02-23T12:51:21.090Z,37.61
2019-02-23T12:54:18.499Z,38.91
2019-02-23T12:57:15.448Z,38.15
2019-02-23T13:00:11.932Z,37.24
2019-02-23T13:03:09.444Z,38.54
2019-02-23T13:06:05.940Z,38.30
2019-02-23T13:09:25.280Z,37.77
2019-02-23T13:12:32.931Z,36.60
2019-02-23T13:15:47.944Z,38.09
2019-02-23T13:19:06.808Z,38.05
2019-02-23T13:22:30.816Z,36.76
2019-02-23T13:25:47.682Z,36.21
2019-02-23T13:29:02.218Z,36.47
2019-02-23T13:32:25.336Z,35.16
2019-02-23T13:35:35.953Z,35.05
2019-02-23T13:39:03.697Z,34.57
2019-02-23T13:42:14.052Z,34.10
2019-02-23T13:45:42.427Z,35.90
2019-02-23T13:49:24.709Z,35.45
2019-02-23T13:53:05.130Z,36.66
2019-02-23T13:56:31.173Z,35.68
2019-02-23T14:00:10.446Z,34.67
2019-02-23T14:03:33.525Z,33.65
2019-02-23T14:06:55.846Z,36.21
2019-02-23T14:10:16.337Z,35.36
2019-02-23T14:13:31.518Z,33.84
2019-02-23T14:17:09.501Z,35.46
2019-02-23T14:20:26.302Z,33.29
2019-02-23T14:23:54.143Z,35.65
2019-02-23T14:27:33.281Z,34.56
2019-02-23T14:30:58.958Z,33.09
2019-02-23T14:34:16.617Z,33.09
2019-02-23T14:37:40.932Z,34.00
2019-02-23T14:40:54.238Z,34.17
2019-02-23T14:44:06.900Z,32.54
2019-02-23T14:47:39.539Z,31.96
2019-02-23T14:51:05.234Z,32.67
2019-02-23T14:54:39.664Z,33.48
2019-02-23T14:58:07.373Z,33.64
2019-02-23T15:01:44.763Z,33.99
2019-02-23T15:05:10.436Z,32.52
2019-02-23T15:08:40.848Z,31.76
2019-02-23T15:11:59.807Z,29.51
2019-02-23T15:15:14.431Z,28.93
2019-02-23T15:18:30.146Z,29.39
2019-02-23T15:21:49.955Z,29.67
2019-02-23T15:25:20.784Z,31.15
2019-02-23T15:28:38.305Z,29.65
2019-02-23T15:32:12.774Z,30.13
2019-02-23T15:35:28.145Z,30.29
2019-02-23T15:38:47.784Z,30.63
2019-02-23T15:42:28.289Z,28.94
2019-02-23T15:45:37.917Z,29.43
2019-02-23T15:49:12.389Z,28.87
2019-02-23T15:52:08.023Z,28.16
2019-02-23T15:55:04.252Z,30.09
2019-02-23T15:57:59.687Z,30.24
2019-02-23T16:00:56.464Z,30.36
2019-02-23T16:03:53.593Z,30.84
2019-02-23T16:06:50.232Z,30.80
2019-02-23T16:09:47.046Z,30.31
2019-02-23T16:12:43.860Z,32.20
2019-02-23T16:15:41.606Z,33.24
2019-02-23T16:18:37.039Z,33.70
2019-02-23T16:21:33.870Z,34.02
2019-02-23T16:24:29.735Z,35.38
2019-02-23T16:27:27.051Z,35.14
2019-02-23T16:30:22.964Z,35.26
2019-02-23T16:33:19.537Z,35.52
2019-02-23T16:36:15.099Z,35.89
2019-02-23T16:39:11.444Z,34.16
2019-02-23T16:42:07.257Z,35.05
2019-02-23T16:45:03.953Z,35.10
2019-02-23T16:47:59.690Z,34.78
2019-02-23T16:50:55.929Z,34.90
2019-02-23T16:53:51.690Z,35.34
2019-02-23T16:56:48.262Z,36.43
2019-02-23T16:59:43.832Z,35.79
2019-02-23T17:02:41.414Z,36.32
2019-02-23T17:05:37.237Z,36.83
2019-02-23T17:08:33.112Z,37.86
2019-02-23T17:11:29.101Z,39.16
2019-02-23T17:14:25.114Z,40.14
2019-02-23T17:17:21.373Z,41.14
2019-02-23T17:20:17.960Z,41.14
2019-02-23T17:23:13.495Z,41.15
2019-02-23T17:26:10.008Z,39.90
2019-02-23T17:29:05.011Z,41.86
2019-02-23T17:32:01.474Z,41.03
2019-02-23T17:34:57.099Z,41.99
2019-02-23T17:37:53.736Z,42.84
2019-02-23T17:40:49.224Z,41.84
2019-02-23T17:43:46.947Z,41.56
2019-02-23T17:46:43.289Z,42.61
2019-02-23T17:49:39.856Z,42.80
2019-02-23T17:52:36.329Z,43.70
2019-02-23T17:55:33.025Z,43.46
2019-02-23T17:58:29.337Z,43.58
2019-02-23T18:01:25.565Z,43.43
2019-02-23T18:04:20.916Z,43.64
2019-02-23T18:07:17.440Z,44.16
2019-02-23T18:10:13.722Z,44.62
2019-02-23T18:13:12.005Z,43.56
2019-02-23T18:16:08.009Z,44.70
2019-02-23T18:19:04.589Z,44.81
2019-02-23T18:21:59.540Z,45.22
2019-02-23T18:24:55.688Z,45.44
2019-02-23T18:27:51.165Z,45.84
2019-02-23T18:30:47.700Z,46.31
2019-02-23T18:33:44.299Z,46.62
2019-02-23T18:36:40.843Z,45.77
2019-02-23T18:39:36.575Z,46.73
2019-02-23T18:42:33.220Z,46.69
2019-02-23T18:45:28.908Z,47.25
2019-02-23T18:48:25.314Z,47.01
2019-02-23T18:51:21.880Z,47.77
2019-02-23T18:54:18.784Z,46.14
2019-02-23T18:57:15.295Z,47.83
2019-02-23T19:00:11.055Z,47.86
2019-02-23T19:03:07.706Z,48.48
2019-02-23T19:06:03.204Z,49.27
2019-02-23T19:08:59.135Z,49.74
2019-02-23T19:11:55.976Z,50.17
2019-02-23T19:14:54.561Z,49.62
2019-02-23T19:17:49.958Z,50.19
2019-02-23T19:20:46.347Z,50.34
2019-02-23T19:23:42.879Z,51.07
2019-02-23T19:26:39.539Z,51.69
2019-02-23T19:29:35.041Z,51.72
2019-02-23T19:32:31.287Z,51.88
2019-02-23T19:35:27.268Z,51.44
2019-02-23T19:38:24.236Z,52.27
2019-02-23T19:41:20.096Z,51.91
2019-02-23T19:44:17.710Z,52.97
2019-02-23T19:47:17.246Z,52.83
2019-02-23T19:50:16.634Z,52.72
2019-02-23T19:53:12.357Z,52.31
2019-02-23T19:56:09.948Z,52.97
2019-02-23T19:59:06.344Z,53.34
2019-02-23T20:02:02.050Z,53.23
2019-02-23T20:04:59.869Z,54.25
2019-02-23T20:07:56.094Z,53.46
2019-02-23T20:10:52.748Z,52.94
2019-02-23T20:13:49.429Z,53.22
2019-02-23T20:16:47.162Z,53.48
2019-02-23T20:19:42.898Z,53.76
2019-02-23T20:22:39.885Z,54.09
2019-02-23T20:25:36.020Z,54.93
2019-02-23T20:28:31.853Z,54.65
2019-02-23T20:31:26.716Z,53.76
2019-02-23T20:34:24.283Z,53.43
2019-02-23T20:37:21.137Z,53.72
2019-02-23T20:40:16.958Z,53.29
2019-02-23T20:43:13.748Z,53.88
2019-02-23T20:46:10.470Z,54.15
2019-02-23T20:49:07.339Z,54.55
2019-02-23T20:52:03.202Z,54.66
2019-02-23T20:55:01.266Z,54.52
2019-02-23T20:57:55.981Z,53.50
2019-02-23T21:00:52.819Z,54.39
2019-02-23T21:03:49.717Z,54.94
2019-02-23T21:06:46.290Z,55.40
2019-02-23T21:09:42.906Z,54.80
2019-02-23T21:12:38.255Z,54.61
2019-02-23T21:15:36.071Z,54.67
2019-02-23T21:18:32.182Z,54.35
2019-02-23T21:21:28.201Z,54.28
2019-02-23T21:24:23.795Z,54.83
2019-02-23T21:27:20.610Z,55.19
2019-02-23T21:30:16.253Z,55.01
2019-02-23T21:33:12.962Z,55.66
2019-02-23T21:36:09.949Z,55.03
2019-02-23T21:39:06.157Z,55.03
2019-02-23T21:42:01.488Z,55.28
2019-02-23T21:44:57.983Z,55.79
2019-02-23T21:47:53.100Z,55.86
2019-02-23T21:50:51.030Z,55.30
2019-02-23T21:53:46.712Z,56.00
2019-02-23T21:56:44.488Z,55.49
2019-02-23T21:59:40.011Z,55.68
2019-02-23T22:02:36.946Z,56.23
2019-02-23T22:05:31.481Z,55.99
2019-02-23T22:08:27.496Z,55.33
2019-02-23T22:11:23.131Z,56.37
2019-02-23T22:14:19.691Z,56.73
2019-02-23T22:17:17.228Z,56.14
2019-02-23T22:20:14.067Z,56.84
2019-02-23T22:23:12.077Z,56.37
2019-02-23T22:26:08.691Z,56.61
2019-02-23T22:29:05.238Z,56.14
2019-02-23T22:32:00.508Z,56.53
2019-02-23T22:34:57.071Z,56.74
2019-02-23T22:37:53.414Z,57.61
2019-02-23T22:40:50.145Z,57.37
2019-02-23T22:43:47.092Z,57.46
2019-02-23T22:46:45.636Z,57.70
2019-02-23T22:49:41.285Z,58.62
2019-02-23T22:52:38.019Z,58.36
2019-02-23T22:55:33.770Z,58.71
2019-02-23T22:58:30.800Z,59.51
2019-02-23T23:01:27.242Z,58.93
2019-02-23T23:04:22.960Z,58.44
2019-02-23T23:07:20.515Z,58.81
2019-02-23T23:10:17.240Z,59.57
2019-02-23T23:13:13.631Z,58.63
2019-02-23T23:16:10.112Z,59.31
2019-02-23T23:19:06.653Z,59.21
2019-02-23T23:22:03.210Z,59.43
2019-02-23T23:24:59.016Z,59.27
2019-02-23T23:27:55.825Z,59.55
2019-02-23T23:30:52.401Z,58.66
2019-02-23T23:33:48.142Z,59.91
2019-02-23T23:36:44.885Z,59.31
2019-02-23T23:39:41.436Z,60.07
2019-02-23T23:42:36.989Z,60.45
2019-02-23T23:45:33.472Z,58.54
2019-02-23T23:48:30.036Z,59.47
2019-02-23T23:51:26.536Z,59.56
2019-02-23T23:54:22.075Z,59.27
2019-02-23T23:57:19.627Z,60.00
